Home   Weather   United Kingdom   Manchester   Past weeks
Flag for United Kingdom

Past Weather in Manchester, England, United Kingdom — September 2021

Currently: 59 °F. Scattered clouds. (Weather station: Manchester Airport, United Kingdom). See more current weather

September 2021 Weather in Manchester — Graph

°F

High & Low Weather Summary for September 2021

 TemperatureHumidityPressure
High82 °F (Sep 7, 3:50 pm)100% (Sep 1, 3:50 am)30.54 "Hg (Sep 1, 3:50 am)
Low45 °F (Sep 20, 2:50 am)45% (Sep 8, 12:20 pm)29.47 "Hg (Sep 27, 5:50 am)
Average60 °F81%30.04 "Hg
* Reported Sep 1 12:20 am — Sep 30 11:50 pm, Manchester. Weather by CustomWeather, © 2024

Note: Actual official high and low records may vary slightly from our data, if they occured in-between our weather recording intervals... More about our weather records

Manchester Weather History for September 1, 2021

Scroll right to see more
 ConditionsComfort  
Time TempWeatherWind HumidityBarometerVisibility
12:20 am
Wed, Sep 1
55 °FPassing clouds.8 mph88%30.54 "HgN/A
12:50 am55 °FPartly cloudy.8 mph88%30.54 "HgN/A
1:20 am55 °FPassing clouds.7 mph88%30.54 "HgN/A
1:50 am55 °FPassing clouds.5 mph82%30.54 "HgN/A
2:20 am55 °FPassing clouds.6 mph82%30.54 "HgN/A
2:50 am54 °FPassing clouds.3 mph88%30.54 "HgN/A
3:20 am52 °FPassing clouds.1 mph88%30.54 "HgN/A
3:50 am50 °FPartly cloudy.3 mph100%30.54 "HgN/A
4:20 am54 °FMostly cloudy.6 mph88%30.54 "HgN/A
4:50 am54 °FMostly cloudy.3 mph88%30.54 "HgN/A
5:20 am54 °FMostly cloudy.3 mph88%30.54 "HgN/A
5:50 am54 °FOvercast.3 mph88%30.51 "HgN/A
6:20 am55 °FOvercast.5 mph82%30.51 "HgN/A
6:50 am55 °FOvercast.5 mph82%30.51 "HgN/A
7:20 am55 °FOvercast.5 mph82%30.54 "HgN/A
7:50 am55 °FMostly cloudy.6 mph82%30.54 "HgN/A
8:20 am55 °FLight rain. Mostly cloudy.6 mph88%30.54 "HgN/A
8:50 am55 °FMostly cloudy.5 mph88%30.54 "HgN/A
9:20 am57 °FDrizzle. Mostly cloudy.6 mph82%30.54 "Hg3 mi
9:50 am57 °FMostly cloudy.3 mph82%30.54 "HgN/A
10:20 am57 °FMostly cloudy.6 mph88%30.54 "HgN/A
10:50 am57 °FDrizzle. Mostly cloudy.6 mph88%30.54 "Hg3 mi
11:20 am57 °FLight rain. Broken clouds.10 mph94%30.54 "Hg6 mi
11:50 am59 °FOvercast.8 mph82%30.54 "HgN/A
12:20 pm59 °FOvercast.7 mph77%30.54 "HgN/A
12:50 pm61 °FMore clouds than sun.8 mph72%30.54 "HgN/A
1:20 pm61 °FMostly cloudy.9 mph72%30.54 "HgN/A
1:50 pm61 °FOvercast.9 mph72%30.54 "HgN/A
2:20 pm61 °FOvercast.8 mph72%30.51 "HgN/A
2:50 pm63 °FOvercast.9 mph68%30.51 "HgN/A
3:20 pm63 °FOvercast.9 mph68%30.51 "HgN/A
3:50 pm63 °FOvercast.5 mph68%30.51 "HgN/A
4:20 pm63 °FOvercast.13 mph73%30.51 "HgN/A
4:50 pm63 °FPartly sunny.8 mph73%30.51 "HgN/A
5:20 pm64 °FPartly sunny.9 mph68%30.48 "HgN/A
5:50 pm64 °FScattered clouds.8 mph64%30.48 "HgN/A
6:20 pm64 °FPartly sunny.7 mph64%30.48 "HgN/A
6:50 pm63 °FScattered clouds.12 mph68%30.48 "HgN/A
7:20 pm63 °FPartly sunny.12 mph68%30.48 "HgN/A
7:50 pm61 °FPartly sunny.10 mph68%30.48 "HgN/A
8:20 pm61 °FPassing clouds.12 mph68%30.51 "HgN/A
8:50 pm59 °FPassing clouds.13 mph77%30.51 "HgN/A
9:20 pm59 °FOvercast.12 mph72%30.51 "HgN/A
9:50 pm59 °FOvercast.10 mph72%30.51 "HgN/A
10:20 pm59 °FOvercast.10 mph72%30.51 "HgN/A
10:50 pm57 °FOvercast.8 mph77%30.51 "HgN/A
11:20 pm57 °FOvercast.7 mph82%30.51 "HgN/A
11:50 pm57 °FOvercast.7 mph77%30.51 "HgN/A
Weather by CustomWeather, © 2024

See weather overview